sensor_id;sensor_type;location;lat;lon;timestamp;noise_LAeq;noise_LA_min;noise_LA_max;noise_LA01;noise_LA95
37833;Laerm;23678;48.778;9.160;2023-05-07T00:02:31;37.28;31.33;40.23;;
37833;Laerm;23678;48.778;9.160;2023-05-07T00:05:16;38.57;29.92;50.85;;
37833;Laerm;23678;48.778;9.160;2023-05-07T00:08:00;38.81;32.93;46.64;;
37833;Laerm;23678;48.778;9.160;2023-05-07T00:10:44;43.19;31.68;60.33;;
37833;Laerm;23678;48.778;9.160;2023-05-07T00:13:28;37.43;30.89;40.89;;
37833;Laerm;23678;48.778;9.160;2023-05-07T00:16:19;37.41;30.89;40.03;;
37833;Laerm;23678;48.778;9.160;2023-05-07T00:19:03;37.56;31.33;41.06;;
37833;Laerm;23678;48.778;9.160;2023-05-07T00:21:47;37.39;32.93;40.43;;
37833;Laerm;23678;48.778;9.160;2023-05-07T00:24:31;37.58;32.93;40.98;;
37833;Laerm;23678;48.778;9.160;2023-05-07T00:27:15;37.68;32.35;42.98;;
37833;Laerm;23678;48.778;9.160;2023-05-07T00:29:59;42.74;31.68;59.71;;
37833;Laerm;23678;48.778;9.160;2023-05-07T00:32:43;38.74;32.35;48.02;;
37833;Laerm;23678;48.778;9.160;2023-05-07T00:35:29;40.67;33.44;53.48;;
37833;Laerm;23678;48.778;9.160;2023-05-07T00:38:13;38.03;32.35;44.35;;
37833;Laerm;23678;48.778;9.160;2023-05-07T00:40:58;37.67;31.68;41.96;;
37833;Laerm;23678;48.778;9.160;2023-05-07T00:43:42;37.93;32.35;44.39;;
37833;Laerm;23678;48.778;9.160;2023-05-07T00:46:25;38.86;32.35;51.68;;
37833;Laerm;23678;48.778;9.160;2023-05-07T00:49:10;37.46;31.68;41.38;;
37833;Laerm;23678;48.778;9.160;2023-05-07T00:51:54;39.06;29.92;49.82;;
37833;Laerm;23678;48.778;9.160;2023-05-07T00:54:38;37.71;32.93;41.96;;
37833;Laerm;23678;48.778;9.160;2023-05-07T00:57:24;37.41;32.93;40.13;;
37833;Laerm;23678;48.778;9.160;2023-05-07T01:00:09;37.43;31.68;41.14;;
37833;Laerm;23678;48.778;9.160;2023-05-07T01:02:53;37.56;31.68;41.53;;
37833;Laerm;23678;48.778;9.160;2023-05-07T01:05:37;37.54;32.35;40.13;;
37833;Laerm;23678;48.778;9.160;2023-05-07T01:08:21;37.50;32.35;40.13;;
37833;Laerm;23678;48.778;9.160;2023-05-07T01:11:09;38.71;30.89;51.14;;
37833;Laerm;23678;48.778;9.160;2023-05-07T01:13:53;37.52;32.35;42.35;;
37833;Laerm;23678;48.778;9.160;2023-05-07T01:16:37;37.90;32.35;50.27;;
37833;Laerm;23678;48.778;9.160;2023-05-07T01:19:21;37.51;32.35;40.13;;
37833;Laerm;23678;48.778;9.160;2023-05-07T01:22:09;37.55;32.93;40.43;;
37833;Laerm;23678;48.778;9.160;2023-05-07T01:24:54;37.54;32.35;40.89;;
37833;Laerm;23678;48.778;9.160;2023-05-07T01:27:39;37.41;31.68;41.06;;
37833;Laerm;23678;48.778;9.160;2023-05-07T01:30:23;37.41;32.35;40.23;;
37833;Laerm;23678;48.778;9.160;2023-05-07T01:33:11;37.42;31.68;40.18;;
37833;Laerm;23678;48.778;9.160;2023-05-07T01:35:57;37.46;33.44;40.80;;
37833;Laerm;23678;48.778;9.160;2023-05-07T01:38:41;37.38;31.68;40.36;;
37833;Laerm;23678;48.778;9.160;2023-05-07T01:41:25;37.39;32.35;40.03;;
37833;Laerm;23678;48.778;9.160;2023-05-07T01:44:10;38.94;32.35;52.91;;
37833;Laerm;23678;48.778;9.160;2023-05-07T01:46:56;38.73;31.68;50.32;;
37833;Laerm;23678;48.778;9.160;2023-05-07T01:49:41;39.21;32.93;57.75;;
37833;Laerm;23678;48.778;9.160;2023-05-07T01:52:25;37.36;32.35;40.33;;
37833;Laerm;23678;48.778;9.160;2023-05-07T01:55:11;37.45;32.35;40.63;;
37833;Laerm;23678;48.778;9.160;2023-05-07T01:57:57;37.57;30.89;42.59;;
37833;Laerm;23678;48.778;9.160;2023-05-07T02:00:41;37.89;32.93;42.29;;
37833;Laerm;23678;48.778;9.160;2023-05-07T02:03:25;37.90;31.68;46.05;;
37833;Laerm;23678;48.778;9.160;2023-05-07T02:06:09;38.08;32.00;50.17;;
37833;Laerm;23678;48.778;9.160;2023-05-07T02:08:53;37.58;30.89;40.80;;
37833;Laerm;23678;48.778;9.160;2023-05-07T02:11:43;38.18;31.68;44.87;;
37833;Laerm;23678;48.778;9.160;2023-05-07T02:14:27;37.83;32.35;40.89;;
37833;Laerm;23678;48.778;9.160;2023-05-07T02:17:11;37.42;32.35;40.23;;
37833;Laerm;23678;48.778;9.160;2023-05-07T02:19:55;39.42;31.68;51.47;;
37833;Laerm;23678;48.778;9.160;2023-05-07T02:22:39;37.72;32.93;43.44;;
37833;Laerm;23678;48.778;9.160;2023-05-07T02:25:23;37.39;31.68;40.80;;
37833;Laerm;23678;48.778;9.160;2023-05-07T02:28:07;37.38;32.35;40.23;;
37833;Laerm;23678;48.778;9.160;2023-05-07T02:30:52;37.49;31.68;41.38;;
37833;Laerm;23678;48.778;9.160;2023-05-07T02:33:36;38.54;31.68;49.94;;
37833;Laerm;23678;48.778;9.160;2023-05-07T02:36:20;37.86;32.93;41.96;;
37833;Laerm;23678;48.778;9.160;2023-05-07T02:39:04;37.33;32.35;40.13;;
37833;Laerm;23678;48.778;9.160;2023-05-07T02:41:48;37.61;31.68;42.88;;
37833;Laerm;23678;48.778;9.160;2023-05-07T02:44:32;37.45;32.93;40.80;;
37833;Laerm;23678;48.778;9.160;2023-05-07T02:47:15;37.44;32.35;43.58;;
37833;Laerm;23678;48.778;9.160;2023-05-07T02:49:59;37.94;33.44;48.95;;
37833;Laerm;23678;48.778;9.160;2023-05-07T02:52:43;39.07;32.93;47.32;;
37833;Laerm;23678;48.778;9.160;2023-05-07T02:55:30;39.37;32.35;47.28;;
37833;Laerm;23678;48.778;9.160;2023-05-07T02:58:14;40.15;32.93;48.49;;
37833;Laerm;23678;48.778;9.160;2023-05-07T03:00:59;40.22;31.68;49.83;;
37833;Laerm;23678;48.778;9.160;2023-05-07T03:03:42;39.81;32.93;49.06;;
37833;Laerm;23678;48.778;9.160;2023-05-07T03:06:26;40.55;32.35;52.42;;
37833;Laerm;23678;48.778;9.160;2023-05-07T03:09:10;42.06;32.93;55.47;;
37833;Laerm;23678;48.778;9.160;2023-05-07T03:11:54;42.45;33.90;54.35;;
37833;Laerm;23678;48.778;9.160;2023-05-07T03:14:38;41.48;33.90;54.83;;
37833;Laerm;23678;48.778;9.160;2023-05-07T03:17:22;38.78;32.93;45.60;;
37833;Laerm;23678;48.778;9.160;2023-05-07T03:20:06;39.20;31.68;48.95;;
37833;Laerm;23678;48.778;9.160;2023-05-07T03:22:50;38.46;29.92;48.46;;
37833;Laerm;23678;48.778;9.160;2023-05-07T03:25:34;37.97;31.68;43.99;;
37833;Laerm;23678;48.778;9.160;2023-05-07T03:28:18;38.95;32.35;48.40;;
37833;Laerm;23678;48.778;9.160;2023-05-07T03:31:02;38.55;31.68;47.98;;
37833;Laerm;23678;48.778;9.160;2023-05-07T03:33:50;37.42;31.68;40.03;;
37833;Laerm;23678;48.778;9.160;2023-05-07T03:36:35;37.68;32.93;41.46;;
37833;Laerm;23678;48.778;9.160;2023-05-07T03:39:19;37.54;32.93;40.33;;
37833;Laerm;23678;48.778;9.160;2023-05-07T03:42:03;37.45;31.68;40.27;;
37833;Laerm;23678;48.778;9.160;2023-05-07T03:44:47;38.41;32.93;47.24;;
37833;Laerm;23678;48.778;9.160;2023-05-07T03:47:31;38.04;31.68;49.62;;
37833;Laerm;23678;48.778;9.160;2023-05-07T03:50:15;37.65;32.35;43.39;;
37833;Laerm;23678;48.778;9.160;2023-05-07T03:52:59;38.71;33.44;47.90;;
37833;Laerm;23678;48.778;9.160;2023-05-07T03:55:43;39.88;33.44;51.17;;
37833;Laerm;23678;48.778;9.160;2023-05-07T03:58:27;40.05;33.44;52.49;;
37833;Laerm;23678;48.778;9.160;2023-05-07T04:01:11;38.75;32.93;45.66;;
37833;Laerm;23678;48.778;9.160;2023-05-07T04:03:55;37.79;32.35;41.22;;
37833;Laerm;23678;48.778;9.160;2023-05-07T04:06:39;38.27;33.90;45.75;;
37833;Laerm;23678;48.778;9.160;2023-05-07T04:09:23;37.68;32.93;43.44;;
37833;Laerm;23678;48.778;9.160;2023-05-07T04:12:07;37.62;32.35;41.22;;
37833;Laerm;23678;48.778;9.160;2023-05-07T04:14:51;38.80;32.93;46.40;;
37833;Laerm;23678;48.778;9.160;2023-05-07T04:17:35;38.03;33.44;43.86;;
37833;Laerm;23678;48.778;9.160;2023-05-07T04:20:19;37.65;29.92;40.43;;
37833;Laerm;23678;48.778;9.160;2023-05-07T04:23:03;38.06;32.35;41.30;;
37833;Laerm;23678;48.778;9.160;2023-05-07T04:25:47;38.01;33.90;42.41;;
37833;Laerm;23678;48.778;9.160;2023-05-07T04:28:31;37.79;33.44;40.53;;
37833;Laerm;23678;48.778;9.160;2023-05-07T04:34:23;38.08;31.68;44.86;;
37833;Laerm;23678;48.778;9.160;2023-05-07T04:37:08;37.59;32.35;41.53;;
37833;Laerm;23678;48.778;9.160;2023-05-07T04:39:51;38.78;32.35;45.07;;
37833;Laerm;23678;48.778;9.160;2023-05-07T04:42:35;38.18;31.68;43.04;;
37833;Laerm;23678;48.778;9.160;2023-05-07T04:45:19;41.78;33.90;63.80;;
37833;Laerm;23678;48.778;9.160;2023-05-07T04:48:03;46.28;32.35;74.83;;
37833;Laerm;23678;48.778;9.160;2023-05-07T04:50:48;39.42;33.44;48.12;;
37833;Laerm;23678;48.778;9.160;2023-05-07T04:53:32;37.86;31.68;41.82;;
37833;Laerm;23678;48.778;9.160;2023-05-07T04:56:16;38.51;32.93;42.03;;
37833;Laerm;23678;48.778;9.160;2023-05-07T04:59:00;37.62;32.35;44.23;;
37833;Laerm;23678;48.778;9.160;2023-05-07T05:01:44;39.02;32.35;52.26;;
37833;Laerm;23678;48.778;9.160;2023-05-07T05:04:28;37.88;31.68;43.90;;
37833;Laerm;23678;48.778;9.160;2023-05-07T05:07:12;38.27;33.44;42.88;;
37833;Laerm;23678;48.778;9.160;2023-05-07T05:09:56;40.43;32.93;52.34;;
37833;Laerm;23678;48.778;9.160;2023-05-07T05:12:41;38.47;32.93;44.19;;
37833;Laerm;23678;48.778;9.160;2023-05-07T05:15:25;38.40;32.93;42.93;;
37833;Laerm;23678;48.778;9.160;2023-05-07T05:18:08;38.00;33.97;42.59;;
37833;Laerm;23678;48.778;9.160;2023-05-07T05:20:52;38.37;32.35;42.03;;
37833;Laerm;23678;48.778;9.160;2023-05-07T05:23:36;38.20;33.44;42.41;;
37833;Laerm;23678;48.778;9.160;2023-05-07T05:26:20;37.74;33.44;40.62;;
37833;Laerm;23678;48.778;9.160;2023-05-07T05:29:07;38.33;30.89;50.14;;
37833;Laerm;23678;48.778;9.160;2023-05-07T05:31:51;38.82;32.93;48.51;;
37833;Laerm;23678;48.778;9.160;2023-05-07T05:34:35;39.54;31.68;45.89;;
37833;Laerm;23678;48.778;9.160;2023-05-07T05:37:19;41.42;34.69;59.20;;
37833;Laerm;23678;48.778;9.160;2023-05-07T05:40:03;40.37;33.90;50.21;;
37833;Laerm;23678;48.778;9.160;2023-05-07T05:42:47;38.92;33.44;52.82;;
37833;Laerm;23678;48.778;9.160;2023-05-07T05:45:31;38.88;33.44;47.44;;
37833;Laerm;23678;48.778;9.160;2023-05-07T05:48:15;39.27;33.44;60.04;;
37833;Laerm;23678;48.778;9.160;2023-05-07T05:50:59;38.34;32.35;53.50;;
37833;Laerm;23678;48.778;9.160;2023-05-07T05:53:43;37.75;32.35;42.29;;
37833;Laerm;23678;48.778;9.160;2023-05-07T05:56:27;37.86;31.68;41.38;;
37833;Laerm;23678;48.778;9.160;2023-05-07T05:59:11;37.63;30.89;41.06;;
37833;Laerm;23678;48.778;9.160;2023-05-07T06:01:55;38.49;33.44;43.68;;
37833;Laerm;23678;48.778;9.160;2023-05-07T06:04:48;38.19;32.35;43.77;;
37833;Laerm;23678;48.778;9.160;2023-05-07T06:07:34;37.58;31.68;40.98;;
37833;Laerm;23678;48.778;9.160;2023-05-07T06:10:18;38.10;32.35;45.23;;
37833;Laerm;23678;48.778;9.160;2023-05-07T06:13:02;37.86;30.89;43.54;;
37833;Laerm;23678;48.778;9.160;2023-05-07T06:15:46;37.51;31.68;41.22;;
37833;Laerm;23678;48.778;9.160;2023-05-07T06:18:30;38.19;32.35;47.54;;
37833;Laerm;23678;48.778;9.160;2023-05-07T06:21:14;38.46;31.68;43.49;;
37833;Laerm;23678;48.778;9.160;2023-05-07T06:23:58;37.50;30.89;55.30;;
37833;Laerm;23678;48.778;9.160;2023-05-07T06:26:42;38.15;32.35;48.29;;
37833;Laerm;23678;48.778;9.160;2023-05-07T06:29:26;38.82;32.93;51.54;;
37833;Laerm;23678;48.778;9.160;2023-05-07T06:32:11;39.25;32.93;47.11;;
37833;Laerm;23678;48.778;9.160;2023-05-07T06:34:55;41.10;34.31;47.20;;
37833;Laerm;23678;48.778;9.160;2023-05-07T06:37:40;38.56;31.68;43.77;;
37833;Laerm;23678;48.778;9.160;2023-05-07T06:40:26;38.59;30.89;47.23;;
37833;Laerm;23678;48.778;9.160;2023-05-07T06:43:10;37.94;32.35;41.75;;
37833;Laerm;23678;48.778;9.160;2023-05-07T06:45:54;38.97;30.89;48.88;;
37833;Laerm;23678;48.778;9.160;2023-05-07T06:48:38;39.31;32.35;44.23;;
37833;Laerm;23678;48.778;9.160;2023-05-07T06:51:22;38.18;32.35;42.58;;
37833;Laerm;23678;48.778;9.160;2023-05-07T06:54:06;38.85;33.44;43.44;;
37833;Laerm;23678;48.778;9.160;2023-05-07T06:56:51;38.74;31.68;47.26;;
37833;Laerm;23678;48.778;9.160;2023-05-07T06:59:35;39.49;31.68;52.28;;
37833;Laerm;23678;48.778;9.160;2023-05-07T07:02:19;37.77;30.89;41.30;;
37833;Laerm;23678;48.778;9.160;2023-05-07T07:05:03;39.77;32.35;49.52;;
37833;Laerm;23678;48.778;9.160;2023-05-07T07:07:46;40.00;30.89;50.25;;
37833;Laerm;23678;48.778;9.160;2023-05-07T07:10:36;37.80;31.68;48.69;;
37833;Laerm;23678;48.778;9.160;2023-05-07T07:13:20;38.41;32.35;48.45;;
37833;Laerm;23678;48.778;9.160;2023-05-07T07:16:04;37.47;28.67;50.77;;
37833;Laerm;23678;48.778;9.160;2023-05-07T07:18:48;39.25;32.93;51.15;;
37833;Laerm;23678;48.778;9.160;2023-05-07T07:21:32;39.17;33.44;46.80;;
37833;Laerm;23678;48.778;9.160;2023-05-07T07:24:16;39.16;32.35;49.20;;
37833;Laerm;23678;48.778;9.160;2023-05-07T07:27:03;39.55;32.35;48.71;;
37833;Laerm;23678;48.778;9.160;2023-05-07T07:29:47;38.18;29.92;51.90;;
37833;Laerm;23678;48.778;9.160;2023-05-07T07:32:30;39.07;31.68;49.74;;
37833;Laerm;23678;48.778;9.160;2023-05-07T07:35:16;39.21;32.35;45.97;;
37833;Laerm;23678;48.778;9.160;2023-05-07T07:38:00;40.56;32.35;47.26;;
37833;Laerm;23678;48.778;9.160;2023-05-07T07:40:45;39.16;33.90;45.54;;
37833;Laerm;23678;48.778;9.160;2023-05-07T07:43:29;39.35;34.31;46.45;;
37833;Laerm;23678;48.778;9.160;2023-05-07T07:46:13;39.51;32.35;44.54;;
37833;Laerm;23678;48.778;9.160;2023-05-07T07:48:57;41.08;32.93;53.49;;
37833;Laerm;23678;48.778;9.160;2023-05-07T07:51:43;42.57;37.70;48.98;;
37833;Laerm;23678;48.778;9.160;2023-05-07T07:54:27;40.61;32.35;52.32;;
37833;Laerm;23678;48.778;9.160;2023-05-07T07:57:11;39.83;31.68;46.69;;
37833;Laerm;23678;48.778;9.160;2023-05-07T07:59:55;38.64;26.91;44.35;;
37833;Laerm;23678;48.778;9.160;2023-05-07T08:02:39;43.81;30.89;50.44;;
37833;Laerm;23678;48.778;9.160;2023-05-07T08:05:23;45.91;42.47;50.48;;
37833;Laerm;23678;48.778;9.160;2023-05-07T08:08:07;41.05;30.89;51.74;;
37833;Laerm;23678;48.778;9.160;2023-05-07T08:10:51;39.24;32.35;47.20;;
37833;Laerm;23678;48.778;9.160;2023-05-07T08:13:35;39.00;31.68;50.26;;
37833;Laerm;23678;48.778;9.160;2023-05-07T08:16:20;38.57;32.35;51.89;;
37833;Laerm;23678;48.778;9.160;2023-05-07T08:19:04;39.58;32.35;49.46;;
37833;Laerm;23678;48.778;9.160;2023-05-07T08:21:48;38.16;30.89;47.34;;
37833;Laerm;23678;48.778;9.160;2023-05-07T08:24:32;39.15;32.35;56.36;;
37833;Laerm;23678;48.778;9.160;2023-05-07T08:27:16;41.62;30.89;58.09;;
37833;Laerm;23678;48.778;9.160;2023-05-07T08:30:00;38.62;30.89;44.69;;
37833;Laerm;23678;48.778;9.160;2023-05-07T08:32:44;39.38;29.92;53.59;;
37833;Laerm;23678;48.778;9.160;2023-05-07T08:35:27;39.01;29.92;51.70;;
37833;Laerm;23678;48.778;9.160;2023-05-07T08:38:12;38.77;31.68;51.79;;
37833;Laerm;23678;48.778;9.160;2023-05-07T08:40:55;38.32;32.35;45.43;;
37833;Laerm;23678;48.778;9.160;2023-05-07T08:43:40;38.17;30.89;45.75;;
37833;Laerm;23678;48.778;9.160;2023-05-07T08:46:24;40.49;32.93;51.62;;
37833;Laerm;23678;48.778;9.160;2023-05-07T08:49:08;39.73;32.35;45.98;;
37833;Laerm;23678;48.778;9.160;2023-05-07T08:51:52;44.04;32.93;65.59;;
37833;Laerm;23678;48.778;9.160;2023-05-07T08:54:37;39.92;31.68;54.51;;
37833;Laerm;23678;48.778;9.160;2023-05-07T08:57:22;39.55;30.89;49.38;;
37833;Laerm;23678;48.778;9.160;2023-05-07T09:00:08;38.57;32.35;43.90;;
37833;Laerm;23678;48.778;9.160;2023-05-07T09:02:53;39.49;32.35;47.68;;
37833;Laerm;23678;48.778;9.160;2023-05-07T09:05:37;41.17;30.89;58.71;;
37833;Laerm;23678;48.778;9.160;2023-05-07T09:08:23;39.48;32.93;48.95;;
37833;Laerm;23678;48.778;9.160;2023-05-07T09:11:07;39.50;33.90;44.43;;
37833;Laerm;23678;48.778;9.160;2023-05-07T09:13:55;40.64;34.31;47.00;;
37833;Laerm;23678;48.778;9.160;2023-05-07T09:16:45;39.78;32.35;50.08;;
37833;Laerm;23678;48.778;9.160;2023-05-07T09:19:29;39.92;31.68;50.35;;
37833;Laerm;23678;48.778;9.160;2023-05-07T09:22:13;39.73;32.35;50.56;;
37833;Laerm;23678;48.778;9.160;2023-05-07T09:24:57;38.42;30.89;43.68;;
37833;Laerm;23678;48.778;9.160;2023-05-07T09:27:41;41.37;34.31;48.13;;
37833;Laerm;23678;48.778;9.160;2023-05-07T09:30:28;41.56;32.93;51.48;;
37833;Laerm;23678;48.778;9.160;2023-05-07T09:33:13;39.59;33.44;47.74;;
37833;Laerm;23678;48.778;9.160;2023-05-07T09:35:57;38.48;31.68;45.30;;
37833;Laerm;23678;48.778;9.160;2023-05-07T09:38:41;39.55;32.35;52.67;;
37833;Laerm;23678;48.778;9.160;2023-05-07T09:41:25;41.81;33.44;54.45;;
37833;Laerm;23678;48.778;9.160;2023-05-07T09:44:09;39.60;32.35;47.76;;
37833;Laerm;23678;48.778;9.160;2023-05-07T09:46:54;40.04;30.89;52.72;;
37833;Laerm;23678;48.778;9.160;2023-05-07T09:49:39;42.24;33.90;66.43;;
37833;Laerm;23678;48.778;9.160;2023-05-07T09:52:25;42.48;35.66;52.22;;
37833;Laerm;23678;48.778;9.160;2023-05-07T09:55:16;40.38;34.69;56.84;;
37833;Laerm;23678;48.778;9.160;2023-05-07T09:58:01;39.48;31.68;45.20;;
37833;Laerm;23678;48.778;9.160;2023-05-07T10:00:46;38.69;30.89;47.65;;
37833;Laerm;23678;48.778;9.160;2023-05-07T10:03:31;40.49;33.90;54.63;;
37833;Laerm;23678;48.778;9.160;2023-05-07T10:06:17;38.85;33.44;49.32;;
37833;Laerm;23678;48.778;9.160;2023-05-07T10:09:01;40.15;32.93;46.23;;
37833;Laerm;23678;48.778;9.160;2023-05-07T10:11:45;39.99;32.93;46.23;;
37833;Laerm;23678;48.778;9.160;2023-05-07T10:14:29;40.24;33.44;52.83;;
37833;Laerm;23678;48.778;9.160;2023-05-07T10:17:13;40.58;30.89;51.67;;
37833;Laerm;23678;48.778;9.160;2023-05-07T10:19:57;41.07;31.68;59.11;;
37833;Laerm;23678;48.778;9.160;2023-05-07T10:22:41;39.30;30.89;49.70;;
37833;Laerm;23678;48.778;9.160;2023-05-07T10:25:30;37.88;28.67;41.89;;
37833;Laerm;23678;48.778;9.160;2023-05-07T10:28:14;39.86;29.92;52.06;;
37833;Laerm;23678;48.778;9.160;2023-05-07T10:31:06;38.35;31.68;43.29;;
37833;Laerm;23678;48.778;9.160;2023-05-07T10:33:51;43.05;32.93;60.90;;
37833;Laerm;23678;48.778;9.160;2023-05-07T10:36:36;43.19;31.68;56.84;;
37833;Laerm;23678;48.778;9.160;2023-05-07T10:39:20;40.71;30.89;51.93;;
37833;Laerm;23678;48.778;9.160;2023-05-07T10:42:09;42.65;32.35;59.19;;
37833;Laerm;23678;48.778;9.160;2023-05-07T10:44:53;40.16;32.93;48.63;;
37833;Laerm;23678;48.778;9.160;2023-05-07T10:47:37;39.91;32.35;49.80;;
37833;Laerm;23678;48.778;9.160;2023-05-07T10:50:41;38.68;30.89;47.42;;
37833;Laerm;23678;48.778;9.160;2023-05-07T10:53:26;39.18;32.35;46.82;;
37833;Laerm;23678;48.778;9.160;2023-05-07T11:02:03;38.85;32.93;43.97;;
37833;Laerm;23678;48.778;9.160;2023-05-07T11:05:32;38.29;29.92;46.89;;
37833;Laerm;23678;48.778;9.160;2023-05-07T11:08:03;40.11;30.89;51.60;;
37833;Laerm;23678;48.778;9.160;2023-05-07T11:10:48;39.38;29.92;46.95;;
37833;Laerm;23678;48.778;9.160;2023-05-07T11:13:45;41.13;33.44;47.98;;
37833;Laerm;23678;48.778;9.160;2023-05-07T11:16:29;39.15;29.92;47.40;;
37833;Laerm;23678;48.778;9.160;2023-05-07T11:19:13;40.20;31.68;55.19;;
37833;Laerm;23678;48.778;9.160;2023-05-07T11:21:57;38.25;32.35;49.43;;
37833;Laerm;23678;48.778;9.160;2023-05-07T11:24:41;39.14;32.35;44.94;;
37833;Laerm;23678;48.778;9.160;2023-05-07T11:27:27;41.83;32.35;49.97;;
37833;Laerm;23678;48.778;9.160;2023-05-07T11:30:16;39.94;32.35;49.21;;
37833;Laerm;23678;48.778;9.160;2023-05-07T11:33:00;39.51;29.92;48.42;;
37833;Laerm;23678;48.778;9.160;2023-05-07T11:35:44;40.21;32.93;46.75;;
37833;Laerm;23678;48.778;9.160;2023-05-07T11:38:35;39.81;28.67;53.54;;
37833;Laerm;23678;48.778;9.160;2023-05-07T11:41:20;39.63;32.35;47.46;;
37833;Laerm;23678;48.778;9.160;2023-05-07T11:44:04;41.09;29.92;47.91;;
37833;Laerm;23678;48.778;9.160;2023-05-07T11:46:48;42.69;32.35;58.07;;
37833;Laerm;23678;48.778;9.160;2023-05-07T11:49:32;41.63;35.04;54.86;;
37833;Laerm;23678;48.778;9.160;2023-05-07T11:52:18;43.65;36.20;68.26;;
37833;Laerm;23678;48.778;9.160;2023-05-07T11:55:03;41.98;35.66;50.86;;
37833;Laerm;23678;48.778;9.160;2023-05-07T11:57:49;42.05;36.20;54.91;;
37833;Laerm;23678;48.778;9.160;2023-05-07T12:00:33;42.20;36.91;54.85;;
37833;Laerm;23678;48.778;9.160;2023-05-07T12:03:17;45.65;36.45;77.96;;
37833;Laerm;23678;48.778;9.160;2023-05-07T12:06:07;45.59;38.21;70.50;;
37833;Laerm;23678;48.778;9.160;2023-05-07T12:08:51;45.30;37.52;76.07;;
37833;Laerm;23678;48.778;9.160;2023-05-07T12:11:35;55.11;44.80;86.50;;
37833;Laerm;23678;48.778;9.160;2023-05-07T12:14:19;53.84;45.73;82.13;;
37833;Laerm;23678;48.778;9.160;2023-05-07T12:17:03;50.77;44.19;71.87;;
37833;Laerm;23678;48.778;9.160;2023-05-07T12:19:48;54.69;45.01;85.77;;
37833;Laerm;23678;48.778;9.160;2023-05-07T12:22:32;59.22;48.76;90.77;;
37833;Laerm;23678;48.778;9.160;2023-05-07T12:25:18;57.05;46.43;84.17;;
37833;Laerm;23678;48.778;9.160;2023-05-07T12:28:02;57.18;48.29;86.30;;
37833;Laerm;23678;48.778;9.160;2023-05-07T12:30:48;57.87;49.03;82.17;;
37833;Laerm;23678;48.778;9.160;2023-05-07T12:33:34;58.25;49.65;83.40;;
37833;Laerm;23678;48.778;9.160;2023-05-07T12:36:18;58.21;47.16;90.94;;
37833;Laerm;23678;48.778;9.160;2023-05-07T12:39:03;54.34;44.98;79.32;;
37833;Laerm;23678;48.778;9.160;2023-05-07T12:44:38;52.90;41.82;76.08;;
37833;Laerm;23678;48.778;9.160;2023-05-07T12:47:22;53.16;41.96;76.08;;
37833;Laerm;23678;48.778;9.160;2023-05-07T12:50:06;52.13;42.88;68.96;;
37833;Laerm;23678;48.778;9.160;2023-05-07T12:52:50;54.28;44.27;76.27;;
37833;Laerm;23678;48.778;9.160;2023-05-07T12:55:41;52.86;44.39;73.64;;
37833;Laerm;23678;48.778;9.160;2023-05-07T12:58:27;56.36;45.89;85.15;;
37833;Laerm;23678;48.778;9.160;2023-05-07T13:01:11;53.52;46.84;79.32;;
37833;Laerm;23678;48.778;9.160;2023-05-07T13:04:02;50.72;41.68;82.26;;
37833;Laerm;23678;48.778;9.160;2023-05-07T13:06:47;47.70;39.92;61.47;;
37833;Laerm;23678;48.778;9.160;2023-05-07T13:09:31;51.34;39.58;86.02;;
37833;Laerm;23678;48.778;9.160;2023-05-07T13:12:15;44.62;37.70;60.19;;
37833;Laerm;23678;48.778;9.160;2023-05-07T13:14:58;59.16;38.52;95.43;;
37833;Laerm;23678;48.778;9.160;2023-05-07T13:17:43;45.50;38.37;63.54;;
37833;Laerm;23678;48.778;9.160;2023-05-07T13:20:27;51.78;39.08;87.37;;
37833;Laerm;23678;48.778;9.160;2023-05-07T13:23:11;44.43;38.52;58.20;;
37833;Laerm;23678;48.778;9.160;2023-05-07T13:25:55;44.21;38.21;65.52;;
37833;Laerm;23678;48.778;9.160;2023-05-07T13:28:39;41.61;38.05;66.98;;
37833;Laerm;23678;48.778;9.160;2023-05-07T13:31:24;45.02;37.88;61.74;;
37833;Laerm;23678;48.778;9.160;2023-05-07T13:34:08;43.06;36.91;55.24;;
37833;Laerm;23678;48.778;9.160;2023-05-07T13:36:52;41.13;36.91;58.92;;
37833;Laerm;23678;48.778;9.160;2023-05-07T13:39:36;41.32;36.69;54.39;;
37833;Laerm;23678;48.778;9.160;2023-05-07T13:42:20;41.29;36.69;53.58;;
37833;Laerm;23678;48.778;9.160;2023-05-07T13:45:04;41.66;37.12;52.66;;
37833;Laerm;23678;48.778;9.160;2023-05-07T13:47:48;40.74;37.32;61.71;;
37833;Laerm;23678;48.778;9.160;2023-05-07T13:50:33;43.03;36.91;57.15;;
37833;Laerm;23678;48.778;9.160;2023-05-07T13:53:17;42.50;36.91;62.79;;
37833;Laerm;23678;48.778;9.160;2023-05-07T13:56:01;41.51;36.69;58.40;;
37833;Laerm;23678;48.778;9.160;2023-05-07T13:58:48;41.30;37.32;60.86;;
37833;Laerm;23678;48.778;9.160;2023-05-07T14:01:32;42.28;36.91;58.98;;
37833;Laerm;23678;48.778;9.160;2023-05-07T14:04:16;53.08;36.69;89.26;;
37833;Laerm;23678;48.778;9.160;2023-05-07T14:07:01;41.85;38.21;62.30;;
37833;Laerm;23678;48.778;9.160;2023-05-07T14:09:45;41.48;37.70;67.90;;
37833;Laerm;23678;48.778;9.160;2023-05-07T14:12:29;43.45;38.05;55.67;;
37833;Laerm;23678;48.778;9.160;2023-05-07T14:15:13;41.68;37.70;58.82;;
37833;Laerm;23678;48.778;9.160;2023-05-07T14:17:57;41.61;36.91;64.35;;
37833;Laerm;23678;48.778;9.160;2023-05-07T14:20:42;42.60;37.88;68.31;;
37833;Laerm;23678;48.778;9.160;2023-05-07T14:23:30;42.83;37.52;67.35;;
37833;Laerm;23678;48.778;9.160;2023-05-07T14:26:14;41.52;37.70;62.01;;
37833;Laerm;23678;48.778;9.160;2023-05-07T14:28:58;42.90;38.05;56.90;;
37833;Laerm;23678;48.778;9.160;2023-05-07T14:31:42;42.21;37.52;54.73;;
37833;Laerm;23678;48.778;9.160;2023-05-07T14:34:26;41.81;37.12;56.28;;
37833;Laerm;23678;48.778;9.160;2023-05-07T14:37:10;45.03;36.91;68.13;;
37833;Laerm;23678;48.778;9.160;2023-05-07T14:39:54;42.30;38.67;65.89;;
37833;Laerm;23678;48.778;9.160;2023-05-07T14:42:38;40.72;37.52;65.39;;
37833;Laerm;23678;48.778;9.160;2023-05-07T14:45:22;41.23;37.52;54.47;;
37833;Laerm;23678;48.778;9.160;2023-05-07T14:48:09;40.76;36.45;54.57;;
37833;Laerm;23678;48.778;9.160;2023-05-07T14:50:59;40.41;37.12;56.90;;
37833;Laerm;23678;48.778;9.160;2023-05-07T14:53:43;42.38;36.20;57.03;;
37833;Laerm;23678;48.778;9.160;2023-05-07T14:56:26;39.90;36.20;58.06;;
37833;Laerm;23678;48.778;9.160;2023-05-07T14:59:10;40.70;36.69;52.80;;
37833;Laerm;23678;48.778;9.160;2023-05-07T15:01:54;42.44;37.70;53.60;;
37833;Laerm;23678;48.778;9.160;2023-05-07T15:04:38;40.85;36.69;51.78;;
37833;Laerm;23678;48.778;9.160;2023-05-07T15:07:28;43.03;36.91;53.17;;
37833;Laerm;23678;48.778;9.160;2023-05-07T15:10:12;41.66;35.66;55.99;;
37833;Laerm;23678;48.778;9.160;2023-05-07T15:12:56;44.07;36.45;63.12;;
37833;Laerm;23678;48.778;9.160;2023-05-07T15:15:41;43.85;35.94;58.03;;
37833;Laerm;23678;48.778;9.160;2023-05-07T15:18:25;44.36;36.20;57.86;;
37833;Laerm;23678;48.778;9.160;2023-05-07T15:21:09;43.94;36.20;56.90;;
37833;Laerm;23678;48.778;9.160;2023-05-07T15:23:53;42.88;35.66;54.58;;
37833;Laerm;23678;48.778;9.160;2023-05-07T15:26:37;40.30;35.94;46.07;;
37833;Laerm;23678;48.778;9.160;2023-05-07T15:29:21;41.66;36.56;52.03;;
37833;Laerm;23678;48.778;9.160;2023-05-07T15:32:05;40.11;35.66;48.74;;
37833;Laerm;23678;48.778;9.160;2023-05-07T15:34:49;41.61;36.20;53.81;;